Arctic Fury — WDE9335 — position and weather

sailwx.info

Track history (hours):
 
Tides and Currents Weather Stations Pressure Air Temp Water Temp Dewpoint Dewpoint Depression Visibility Wind Speed Wind Dir Waves Ship Positions

Arctic Fury

More information available from US FCC via Universal Licensing System and Coast Guard Vessel Documentation Center.

Last reported at 2014-Jul-23 03:29 UTC. Time now 2014-Jul-23 13:37 UTC.
Position N 46°57' W 124°29'.

Length 43 m; draft 5 m.

Type: Fishing. MMSI: 366468000.

Date/timePositionNaut miles runAvg speedWind from/ knotsBaromVisibWave heightAir tempDewpointWater temp
2014-Jul-23 03:29N 46°57' W 124°29'9 9.0
2014-Jul-23 02:28N 46°55' W 124°16'  
2014-Jul-19 18:23N 46°34' W 124°31'0 0.1
2014-Jul-19 15:33N 46°34' W 124°30'3 3.4
2014-Jul-19 14:33N 46°37' W 124°33'  
2014-Jul-17 08:11N 47°39' W 125°02'24 3.5
2014-Jul-17 01:18N 47°18' W 124°44'5 7.3
2014-Jul-17 00:34N 47°14' W 124°39'8 7.7
2014-Jul-16 23:33N 47°08' W 124°32'8 7.9
2014-Jul-16 22:30N 47°02' W 124°24'8 8.1
2014-Jul-16 21:31N 46°56' W 124°16'7 7.2
2014-Jul-16 20:34N 46°55' W 124°06'0 0.2
2014-Jul-16 19:31N 46°54' W 124°06'0 0.0
2014-Jul-16 18:25N 46°54' W 124°06'0 0.0
2014-Jul-16 17:30N 46°54' W 124°06'0 0.0
2014-Jul-16 16:23N 46°54' W 124°06'0 0.0
2014-Jul-16 15:29N 46°54' W 124°06'0 0.0
2014-Jul-16 14:34N 46°54' W 124°06'0 0.0
2014-Jul-16 11:16N 46°54' W 124°06'0 0.0
2014-Jul-16 10:31N 46°54' W 124°06'2 2.1
2014-Jul-16 09:29N 46°55' W 124°10'8 8.3
2014-Jul-16 08:32N 46°60' W 124°19'9 8.8
2014-Jul-16 07:34N 47°07' W 124°26'9 9.1
2014-Jul-16 06:34N 47°14' W 124°34'10 9.4
2014-Jul-16 05:28N 47°22' W 124°42'9 9.3
2014-Jul-16 04:33N 47°29' W 124°50'9 9.2
2014-Jul-16 03:33N 47°37' W 124°57'2 0.1
2014-Jul-15 08:20N 47°38' W 124°59'2 2.9
2014-Jul-15 07:33N 47°36' W 124°58'3 2.7
2014-Jul-15 06:33N 47°34' W 124°56'6 2.7
2014-Jul-15 04:30N 47°29' W 124°52'5 5.6
2014-Jul-15 03:33N 47°24' W 124°49'7 6.7
2014-Jul-15 02:34N 47°18' W 124°45'8 8.1
2014-Jul-15 01:33N 47°13' W 124°37'9 8.1
2014-Jul-15 00:24N 47°06' W 124°27'11 8.4
2014-Jul-14 23:09N 46°58' W 124°17'8 7.7
2014-Jul-14 22:09N 46°55' W 124°07'0 0.2
2014-Jul-14 19:25N 46°54' W 124°06'0 0.0
2014-Jul-14 18:22N 46°54' W 124°06'0 0.0
2014-Jul-14 17:21N 46°54' W 124°06'0 0.0
2014-Jul-14 12:25N 46°54' W 124°06'38 7.7
2014-Jul-14 07:32N 47°23' W 124°42'32 7.4
2014-Jul-14 03:11N 47°50' W 125°08'3 2.9
2014-Jul-14 02:08N 47°52' W 125°12'4 1.0
2014-Jul-13 22:16N 47°54' W 125°16'2 2.0
2014-Jul-13 21:27N 47°53' W 125°14'1 0.1
2014-Jul-13 15:33N 47°53' W 125°15'3 1.4
2014-Jul-13 13:33N 47°56' W 125°15'7 1.0
2014-Jul-13 06:23N 47°59' W 125°24'  
Track history (hours):
 
Tides and Currents Weather Stations Pressure Air Temp Water Temp Dewpoint Dewpoint Depression Visibility Wind Speed Wind Dir Waves Ship Positions

Arctic Fury

More information available from US FCC via Universal Licensing System and Coast Guard Vessel Documentation Center.

Last reported at 2014-Jul-23 03:29 UTC. Time now 2014-Jul-23 13:37 UTC.
Position N 46°57' W 124°29'.

Length 43 m; draft 5 m.

Type: Fishing. MMSI: 366468000.

Date/timePositionNaut miles runAvg speedWind from/ knotsBaromVisibWave heightAir tempDewpointWater temp
2014-Jul-23 03:29N 46°57' W 124°29'9 9.0
2014-Jul-23 02:28N 46°55' W 124°16'  
2014-Jul-19 18:23N 46°34' W 124°31'0 0.1
2014-Jul-19 15:33N 46°34' W 124°30'3 3.4
2014-Jul-19 14:33N 46°37' W 124°33'  
2014-Jul-17 08:11N 47°39' W 125°02'24 3.5
2014-Jul-17 01:18N 47°18' W 124°44'5 7.3
2014-Jul-17 00:34N 47°14' W 124°39'8 7.7
2014-Jul-16 23:33N 47°08' W 124°32'8 7.9
2014-Jul-16 22:30N 47°02' W 124°24'8 8.1
2014-Jul-16 21:31N 46°56' W 124°16'7 7.2
2014-Jul-16 20:34N 46°55' W 124°06'0 0.2
2014-Jul-16 19:31N 46°54' W 124°06'0 0.0
2014-Jul-16 18:25N 46°54' W 124°06'0 0.0
2014-Jul-16 17:30N 46°54' W 124°06'0 0.0
2014-Jul-16 16:23N 46°54' W 124°06'0 0.0
2014-Jul-16 15:29N 46°54' W 124°06'0 0.0
2014-Jul-16 14:34N 46°54' W 124°06'0 0.0
2014-Jul-16 11:16N 46°54' W 124°06'0 0.0
2014-Jul-16 10:31N 46°54' W 124°06'2 2.1
2014-Jul-16 09:29N 46°55' W 124°10'8 8.3
2014-Jul-16 08:32N 46°60' W 124°19'9 8.8
2014-Jul-16 07:34N 47°07' W 124°26'9 9.1
2014-Jul-16 06:34N 47°14' W 124°34'10 9.4
2014-Jul-16 05:28N 47°22' W 124°42'9 9.3
2014-Jul-16 04:33N 47°29' W 124°50'9 9.2
2014-Jul-16 03:33N 47°37' W 124°57'2 0.1
2014-Jul-15 08:20N 47°38' W 124°59'2 2.9
2014-Jul-15 07:33N 47°36' W 124°58'3 2.7
2014-Jul-15 06:33N 47°34' W 124°56'6 2.7
2014-Jul-15 04:30N 47°29' W 124°52'5 5.6
2014-Jul-15 03:33N 47°24' W 124°49'7 6.7
2014-Jul-15 02:34N 47°18' W 124°45'8 8.1
2014-Jul-15 01:33N 47°13' W 124°37'9 8.1
2014-Jul-15 00:24N 47°06' W 124°27'11 8.4
2014-Jul-14 23:09N 46°58' W 124°17'8 7.7
2014-Jul-14 22:09N 46°55' W 124°07'0 0.2
2014-Jul-14 19:25N 46°54' W 124°06'0 0.0
2014-Jul-14 18:22N 46°54' W 124°06'0 0.0
2014-Jul-14 17:21N 46°54' W 124°06'0 0.0
2014-Jul-14 12:25N 46°54' W 124°06'38 7.7
2014-Jul-14 07:32N 47°23' W 124°42'32 7.4
2014-Jul-14 03:11N 47°50' W 125°08'3 2.9
2014-Jul-14 02:08N 47°52' W 125°12'4 1.0
2014-Jul-13 22:16N 47°54' W 125°16'2 2.0
2014-Jul-13 21:27N 47°53' W 125°14'1 0.1
2014-Jul-13 15:33N 47°53' W 125°15'3 1.4
2014-Jul-13 13:33N 47°56' W 125°15'7 1.0
2014-Jul-13 06:23N 47°59' W 125°24'  

Dump ship's entire track history